Hai Jing — VRKA3 — position and weather

sailwx.info

Track history (hours):
 
Tides and Currents Weather Stations Pressure Air Temp Water Temp Dewpoint Dewpoint Depression Visibility Wind Speed Wind Dir Waves Ship Positions

Hai Jing

Last reported at 2017-Sep-21 11:59 UTC. Time now 2017-Sep-21 12:16 UTC.
Position N 59°56' E 028°38'.

Length 225 m; draft 8.7 m.

Type: Cargo ship. MMSI: 477817800.

Date/timePositionNaut miles runAvg speedWind from/ knotsBaromVisibWave heightAir tempDewpointWater temp
2017-Sep-21 11:59N 59°56' E 028°38'0 0.0
2017-Sep-21 11:29N 59°56' E 028°38'0 0.0
2017-Sep-21 10:59N 59°56' E 028°38'0 0.0
2017-Sep-21 10:29N 59°56' E 028°38'0 0.0
2017-Sep-21 09:59N 59°56' E 028°38'0 0.0
2017-Sep-21 09:29N 59°56' E 028°38'0 0.0
2017-Sep-21 08:59N 59°56' E 028°38'0 0.0
2017-Sep-21 08:29N 59°56' E 028°38'0 0.0
2017-Sep-21 07:59N 59°56' E 028°38'0 0.0
2017-Sep-21 07:29N 59°56' E 028°38'0 0.0
2017-Sep-21 06:59N 59°56' E 028°38'0 0.0
2017-Sep-21 06:29N 59°56' E 028°38'0 0.0
2017-Sep-21 05:59N 59°56' E 028°38'0 0.0
2017-Sep-21 05:29N 59°56' E 028°38'0 0.0
2017-Sep-21 04:59N 59°56' E 028°38'0 0.0
2017-Sep-21 04:29N 59°56' E 028°38'0 0.0
2017-Sep-21 03:59N 59°56' E 028°38'0 0.1
2017-Sep-21 03:29N 59°56' E 028°38'0 0.1
2017-Sep-21 02:59N 59°56' E 028°38'0 0.0
2017-Sep-21 02:29N 59°56' E 028°38'0 0.0
2017-Sep-21 01:59N 59°56' E 028°38'0 0.0
2017-Sep-21 01:29N 59°56' E 028°38'0 0.0
2017-Sep-21 00:59N 59°56' E 028°38'0 0.0
2017-Sep-21 00:29N 59°56' E 028°38'0 0.1
2017-Sep-20 23:59N 59°56' E 028°38'0 0.2
2017-Sep-20 23:30N 59°56' E 028°38'1 2.2
2017-Sep-20 23:01N 59°57' E 028°38'3 5.8
2017-Sep-20 22:30N 59°60' E 028°36'4 7.2
2017-Sep-20 22:01N 60°02' E 028°31'3 5.9
2017-Sep-20 21:30N 60°03' E 028°25'510.4
2017-Sep-20 21:00N 60°07' E 028°18'612.2
2017-Sep-20 20:31N 60°08' E 028°06'612.5
2017-Sep-20 20:00N 60°10' E 027°54'611.6
2017-Sep-20 19:30N 60°09' E 027°42'612.7
2017-Sep-20 19:00N 60°06' E 027°31'612.6
2017-Sep-20 18:31N 60°03' E 027°20'612.7
2017-Sep-20 18:01N 59°60' E 027°10'611.7
2017-Sep-20 17:30N 59°58' E 026°58'612.5
2017-Sep-20 17:01N 59°59' E 026°46'612.2
2017-Sep-20 16:31N 59°59' E 026°34'612.5
2017-Sep-20 16:00N 59°57' E 026°22'4212.3
2017-Sep-20 12:35N 59°47' E 024°60'112.4
2017-Sep-20 12:31N 59°47' E 024°58'612.4
2017-Sep-20 12:00N 59°46' E 024°46'612.4
2017-Sep-20 11:31N 59°44' E 024°34'612.2
2017-Sep-20 11:01N 59°43' E 024°23'712.3
2017-Sep-20 10:27N 59°40' E 024°10'512.5
2017-Sep-20 10:00N 59°39' E 023°59'812.4
2017-Sep-20 09:24N 59°36' E 023°45'512.6
2017-Sep-20 09:00N 59°35' E 023°36'612.9
2017-Sep-20 08:30N 59°33' E 023°24'712.8
2017-Sep-20 07:58N 59°31' E 023°11'30012.2
2017-Sep-19 07:26N 55°48' E 016°55'613.0
2017-Sep-19 06:59N 55°47' E 016°45'613.0
2017-Sep-19 06:30N 55°46' E 016°34'713.0
2017-Sep-19 06:00N 55°44' E 016°23'612.9
2017-Sep-19 05:30N 55°43' E 016°12'913.1
2017-Sep-19 04:49N 55°40' E 015°56'412.9
2017-Sep-19 04:30N 55°39' E 015°49'612.8
2017-Sep-19 04:00N 55°38' E 015°38'612.6
2017-Sep-19 03:30N 55°36' E 015°28'612.6
2017-Sep-19 03:00N 55°34' E 015°17'712.8
2017-Sep-19 02:25N 55°31' E 015°05'512.7
2017-Sep-19 02:00N 55°29' E 014°57'612.7
2017-Sep-19 01:30N 55°26' E 014°46'612.5
2017-Sep-19 01:00N 55°23' E 014°37'612.6
2017-Sep-19 00:30N 55°18' E 014°30'612.7
2017-Sep-19 00:00N 55°13' E 014°23'612.5
2017-Sep-18 23:30N 55°10' E 014°14'713.0
2017-Sep-18 22:56N 55°10' E 014°01'613.0
2017-Sep-18 22:27N 55°10' E 013°50'613.0
2017-Sep-18 22:00N 55°11' E 013°40'713.0
2017-Sep-18 21:30N 55°11' E 013°28'612.5
2017-Sep-18 21:00N 55°11' E 013°17'612.0
2017-Sep-18 20:30N 55°12' E 013°07'612.7
2017-Sep-18 20:00N 55°13' E 012°56'612.8
2017-Sep-18 19:30N 55°16' E 012°46'611.4
2017-Sep-18 19:00N 55°20' E 012°38'612.1
2017-Sep-18 18:30N 55°26' E 012°40'510.7
2017-Sep-18 18:00N 55°31' E 012°42'4 8.7
2017-Sep-18 17:30N 55°35' E 012°42'4 8.1
2017-Sep-18 17:00N 55°39' E 012°41'510.1
2017-Sep-18 16:30N 55°44' E 012°41'611.7
2017-Sep-18 16:00N 55°50' E 012°41'611.7
2017-Sep-18 15:30N 55°56' E 012°38'611.2
2017-Sep-18 15:00N 56°01' E 012°38'3 6.8
2017-Sep-18 14:30N 56°04' E 012°36'4 7.9
2017-Sep-18 14:00N 56°07' E 012°31'4 8.4
2017-Sep-18 13:30N 56°10' E 012°25'6 8.8
2017-Sep-18 12:51N 56°13' E 012°16'6411.7
2017-Sep-18 07:24N 57°12' E 011°34'512.6
2017-Sep-18 07:00N 57°17' E 011°31'612.5
2017-Sep-18 06:29N 57°23' E 011°27'612.2
2017-Sep-18 05:59N 57°29' E 011°22'612.3
2017-Sep-18 05:30N 57°33' E 011°14'612.6
2017-Sep-18 05:00N 57°37' E 011°05'612.5
2017-Sep-18 04:30N 57°41' E 010°57'712.4
2017-Sep-18 03:58N 57°46' E 010°48'611.2
2017-Sep-18 03:25N 57°48' E 010°37'513.0
2017-Sep-18 02:59N 57°47' E 010°27'713.1
2017-Sep-18 02:29N 57°47' E 010°14'612.6
2017-Sep-18 02:00N 57°46' E 010°03'44912.1
2017-Sep-16 12:46N 51°41' E 002°29'413.6
2017-Sep-16 12:29N 51°39' E 002°25'713.8
2017-Sep-16 12:00N 51°34' E 002°18'714.0
2017-Sep-16 11:30N 51°28' E 002°10'714.1
2017-Sep-16 11:01N 51°23' E 002°03'714.1
2017-Sep-16 10:30N 51°18' E 001°56'714.2
2017-Sep-16 10:00N 51°12' E 001°48'714.4
2017-Sep-16 09:30N 51°07' E 001°41'714.5
2017-Sep-16 09:00N 51°01' E 001°34'714.5
2017-Sep-16 08:31N 50°55' E 001°27'714.2
2017-Sep-16 08:00N 50°48' E 001°23'713.7
2017-Sep-16 07:28N 50°41' E 001°20'1913.5
2017-Sep-16 06:03N 50°29' E 000°57'113.5
2017-Sep-16 05:58N 50°29' E 000°55'713.4
2017-Sep-16 05:29N 50°27' E 000°45'2413.6
2017-Sep-16 03:44N 50°21' E 000°09'413.6
2017-Sep-16 03:26N 50°20' E 000°03'613.4
2017-Sep-16 03:01N 50°18' W 000°05'713.3
2017-Sep-16 02:31N 50°17' W 000°15'3712.1
2017-Sep-15 23:28N 50°07' W 001°11'510.8
2017-Sep-15 23:00N 50°06' W 001°19'510.5
2017-Sep-15 22:30N 50°04' W 001°27'510.3
2017-Sep-15 22:00N 50°03' W 001°34'510.2
2017-Sep-15 21:30N 50°02' W 001°42'510.2
2017-Sep-15 21:00N 50°01' W 001°50'510.5
2017-Sep-15 20:30N 49°59' W 001°58'510.8
2017-Sep-15 20:00N 49°58' W 002°06'1812.0
2017-Sep-15 18:32N 49°53' W 002°32'112.8
2017-Sep-15 18:25N 49°53' W 002°34'612.9
2017-Sep-15 17:58N 49°51' W 002°43'612.8
2017-Sep-15 17:30N 49°49' W 002°52'912.9
2017-Sep-15 16:48N 49°45' W 003°04'413.3
2017-Sep-15 16:30N 49°43' W 003°09'713.4
2017-Sep-15 16:01N 49°40' W 003°18'713.1
2017-Sep-15 15:30N 49°36' W 003°27'713.1
2017-Sep-15 14:59N 49°33' W 003°36'713.1
2017-Sep-15 14:28N 49°29' W 003°45'5613.1
2017-Sep-15 10:13N 49°01' W 004°59'312.9
2017-Sep-15 10:00N 48°60' W 005°03'612.7
2017-Sep-15 09:30N 48°56' W 005°11'612.5
2017-Sep-15 09:01N 48°53' W 005°19'612.5
2017-Sep-15 08:31N 48°50' W 005°27'612.4
2017-Sep-15 08:00N 48°47' W 005°35'  
Track history (hours):
 
Tides and Currents Weather Stations Pressure Air Temp Water Temp Dewpoint Dewpoint Depression Visibility Wind Speed Wind Dir Waves Ship Positions

Hai Jing

Last reported at 2017-Sep-21 11:59 UTC. Time now 2017-Sep-21 12:16 UTC.
Position N 59°56' E 028°38'.

Length 225 m; draft 8.7 m.

Type: Cargo ship. MMSI: 477817800.

Date/timePositionNaut miles runAvg speedWind from/ knotsBaromVisibWave heightAir tempDewpointWater temp
2017-Sep-21 11:59N 59°56' E 028°38'0 0.0
2017-Sep-21 11:29N 59°56' E 028°38'0 0.0
2017-Sep-21 10:59N 59°56' E 028°38'0 0.0
2017-Sep-21 10:29N 59°56' E 028°38'0 0.0
2017-Sep-21 09:59N 59°56' E 028°38'0 0.0
2017-Sep-21 09:29N 59°56' E 028°38'0 0.0
2017-Sep-21 08:59N 59°56' E 028°38'0 0.0
2017-Sep-21 08:29N 59°56' E 028°38'0 0.0
2017-Sep-21 07:59N 59°56' E 028°38'0 0.0
2017-Sep-21 07:29N 59°56' E 028°38'0 0.0
2017-Sep-21 06:59N 59°56' E 028°38'0 0.0
2017-Sep-21 06:29N 59°56' E 028°38'0 0.0
2017-Sep-21 05:59N 59°56' E 028°38'0 0.0
2017-Sep-21 05:29N 59°56' E 028°38'0 0.0
2017-Sep-21 04:59N 59°56' E 028°38'0 0.0
2017-Sep-21 04:29N 59°56' E 028°38'0 0.0
2017-Sep-21 03:59N 59°56' E 028°38'0 0.1
2017-Sep-21 03:29N 59°56' E 028°38'0 0.1
2017-Sep-21 02:59N 59°56' E 028°38'0 0.0
2017-Sep-21 02:29N 59°56' E 028°38'0 0.0
2017-Sep-21 01:59N 59°56' E 028°38'0 0.0
2017-Sep-21 01:29N 59°56' E 028°38'0 0.0
2017-Sep-21 00:59N 59°56' E 028°38'0 0.0
2017-Sep-21 00:29N 59°56' E 028°38'0 0.1
2017-Sep-20 23:59N 59°56' E 028°38'0 0.2
2017-Sep-20 23:30N 59°56' E 028°38'1 2.2
2017-Sep-20 23:01N 59°57' E 028°38'3 5.8
2017-Sep-20 22:30N 59°60' E 028°36'4 7.2
2017-Sep-20 22:01N 60°02' E 028°31'3 5.9
2017-Sep-20 21:30N 60°03' E 028°25'510.4
2017-Sep-20 21:00N 60°07' E 028°18'612.2
2017-Sep-20 20:31N 60°08' E 028°06'612.5
2017-Sep-20 20:00N 60°10' E 027°54'611.6
2017-Sep-20 19:30N 60°09' E 027°42'612.7
2017-Sep-20 19:00N 60°06' E 027°31'612.6
2017-Sep-20 18:31N 60°03' E 027°20'612.7
2017-Sep-20 18:01N 59°60' E 027°10'611.7
2017-Sep-20 17:30N 59°58' E 026°58'612.5
2017-Sep-20 17:01N 59°59' E 026°46'612.2
2017-Sep-20 16:31N 59°59' E 026°34'612.5
2017-Sep-20 16:00N 59°57' E 026°22'4212.3
2017-Sep-20 12:35N 59°47' E 024°60'112.4
2017-Sep-20 12:31N 59°47' E 024°58'612.4
2017-Sep-20 12:00N 59°46' E 024°46'612.4
2017-Sep-20 11:31N 59°44' E 024°34'612.2
2017-Sep-20 11:01N 59°43' E 024°23'712.3
2017-Sep-20 10:27N 59°40' E 024°10'512.5
2017-Sep-20 10:00N 59°39' E 023°59'812.4
2017-Sep-20 09:24N 59°36' E 023°45'512.6
2017-Sep-20 09:00N 59°35' E 023°36'612.9
2017-Sep-20 08:30N 59°33' E 023°24'712.8
2017-Sep-20 07:58N 59°31' E 023°11'30012.2
2017-Sep-19 07:26N 55°48' E 016°55'613.0
2017-Sep-19 06:59N 55°47' E 016°45'613.0
2017-Sep-19 06:30N 55°46' E 016°34'713.0
2017-Sep-19 06:00N 55°44' E 016°23'612.9
2017-Sep-19 05:30N 55°43' E 016°12'913.1
2017-Sep-19 04:49N 55°40' E 015°56'412.9
2017-Sep-19 04:30N 55°39' E 015°49'612.8
2017-Sep-19 04:00N 55°38' E 015°38'612.6
2017-Sep-19 03:30N 55°36' E 015°28'612.6
2017-Sep-19 03:00N 55°34' E 015°17'712.8
2017-Sep-19 02:25N 55°31' E 015°05'512.7
2017-Sep-19 02:00N 55°29' E 014°57'612.7
2017-Sep-19 01:30N 55°26' E 014°46'612.5
2017-Sep-19 01:00N 55°23' E 014°37'612.6
2017-Sep-19 00:30N 55°18' E 014°30'612.7
2017-Sep-19 00:00N 55°13' E 014°23'612.5
2017-Sep-18 23:30N 55°10' E 014°14'713.0
2017-Sep-18 22:56N 55°10' E 014°01'613.0
2017-Sep-18 22:27N 55°10' E 013°50'613.0
2017-Sep-18 22:00N 55°11' E 013°40'713.0
2017-Sep-18 21:30N 55°11' E 013°28'612.5
2017-Sep-18 21:00N 55°11' E 013°17'612.0
2017-Sep-18 20:30N 55°12' E 013°07'612.7
2017-Sep-18 20:00N 55°13' E 012°56'612.8
2017-Sep-18 19:30N 55°16' E 012°46'611.4
2017-Sep-18 19:00N 55°20' E 012°38'612.1
2017-Sep-18 18:30N 55°26' E 012°40'510.7
2017-Sep-18 18:00N 55°31' E 012°42'4 8.7
2017-Sep-18 17:30N 55°35' E 012°42'4 8.1
2017-Sep-18 17:00N 55°39' E 012°41'510.1
2017-Sep-18 16:30N 55°44' E 012°41'611.7
2017-Sep-18 16:00N 55°50' E 012°41'611.7
2017-Sep-18 15:30N 55°56' E 012°38'611.2
2017-Sep-18 15:00N 56°01' E 012°38'3 6.8
2017-Sep-18 14:30N 56°04' E 012°36'4 7.9
2017-Sep-18 14:00N 56°07' E 012°31'4 8.4
2017-Sep-18 13:30N 56°10' E 012°25'6 8.8
2017-Sep-18 12:51N 56°13' E 012°16'6411.7
2017-Sep-18 07:24N 57°12' E 011°34'512.6
2017-Sep-18 07:00N 57°17' E 011°31'612.5
2017-Sep-18 06:29N 57°23' E 011°27'612.2
2017-Sep-18 05:59N 57°29' E 011°22'612.3
2017-Sep-18 05:30N 57°33' E 011°14'612.6
2017-Sep-18 05:00N 57°37' E 011°05'612.5
2017-Sep-18 04:30N 57°41' E 010°57'712.4
2017-Sep-18 03:58N 57°46' E 010°48'611.2
2017-Sep-18 03:25N 57°48' E 010°37'513.0
2017-Sep-18 02:59N 57°47' E 010°27'713.1
2017-Sep-18 02:29N 57°47' E 010°14'612.6
2017-Sep-18 02:00N 57°46' E 010°03'44912.1
2017-Sep-16 12:46N 51°41' E 002°29'413.6
2017-Sep-16 12:29N 51°39' E 002°25'713.8
2017-Sep-16 12:00N 51°34' E 002°18'714.0
2017-Sep-16 11:30N 51°28' E 002°10'714.1
2017-Sep-16 11:01N 51°23' E 002°03'714.1
2017-Sep-16 10:30N 51°18' E 001°56'714.2
2017-Sep-16 10:00N 51°12' E 001°48'714.4
2017-Sep-16 09:30N 51°07' E 001°41'714.5
2017-Sep-16 09:00N 51°01' E 001°34'714.5
2017-Sep-16 08:31N 50°55' E 001°27'714.2
2017-Sep-16 08:00N 50°48' E 001°23'713.7
2017-Sep-16 07:28N 50°41' E 001°20'1913.5
2017-Sep-16 06:03N 50°29' E 000°57'113.5
2017-Sep-16 05:58N 50°29' E 000°55'713.4
2017-Sep-16 05:29N 50°27' E 000°45'2413.6
2017-Sep-16 03:44N 50°21' E 000°09'413.6
2017-Sep-16 03:26N 50°20' E 000°03'613.4
2017-Sep-16 03:01N 50°18' W 000°05'713.3
2017-Sep-16 02:31N 50°17' W 000°15'3712.1
2017-Sep-15 23:28N 50°07' W 001°11'510.8
2017-Sep-15 23:00N 50°06' W 001°19'510.5
2017-Sep-15 22:30N 50°04' W 001°27'510.3
2017-Sep-15 22:00N 50°03' W 001°34'510.2
2017-Sep-15 21:30N 50°02' W 001°42'510.2
2017-Sep-15 21:00N 50°01' W 001°50'510.5
2017-Sep-15 20:30N 49°59' W 001°58'510.8
2017-Sep-15 20:00N 49°58' W 002°06'1812.0
2017-Sep-15 18:32N 49°53' W 002°32'112.8
2017-Sep-15 18:25N 49°53' W 002°34'612.9
2017-Sep-15 17:58N 49°51' W 002°43'612.8
2017-Sep-15 17:30N 49°49' W 002°52'912.9
2017-Sep-15 16:48N 49°45' W 003°04'413.3
2017-Sep-15 16:30N 49°43' W 003°09'713.4
2017-Sep-15 16:01N 49°40' W 003°18'713.1
2017-Sep-15 15:30N 49°36' W 003°27'713.1
2017-Sep-15 14:59N 49°33' W 003°36'713.1
2017-Sep-15 14:28N 49°29' W 003°45'5613.1
2017-Sep-15 10:13N 49°01' W 004°59'312.9
2017-Sep-15 10:00N 48°60' W 005°03'612.7
2017-Sep-15 09:30N 48°56' W 005°11'612.5
2017-Sep-15 09:01N 48°53' W 005°19'612.5
2017-Sep-15 08:31N 48°50' W 005°27'612.4
2017-Sep-15 08:00N 48°47' W 005°35'  

Dump ship's entire track history